Time;durP1;ratioP1;P1;durP2;ratioP2;P2;SDS_P1;SDS_P2;PMS_P1;PMS_P2;Temp;Humidity;BMP_temperature;BMP_pressure;BME280_temperature;BME280_humidity;BME280_pressure;Samples;Min_cycle;Max_cycle;Signal;HPM_P1;HPM_P2
2023/02/13 00:01:29;;;;;;;2.50;1.20;;;;;;;-1.47;100.00;102172.20;109188;1254;75103;-83
2023/02/13 00:04:17;;;;;;;2.50;1.30;;;;;;;-1.49;100.00;102167.44;109198;1254;69585;-83
2023/02/13 00:07:10;;;;;;;3.80;1.40;;;;;;;-1.53;100.00;102162.25;109353;1253;72580;-83
2023/02/13 00:09:59;;;;;;;7.10;1.50;;;;;;;-1.59;100.00;102153.96;109310;1254;61922;-84
2023/02/13 00:12:53;;;;;;;3.90;1.60;;;;;;;-1.68;100.00;102158.42;109334;1254;61520;-83
2023/02/13 00:15:44;;;;;;;3.20;1.60;;;;;;;-1.73;100.00;102154.14;109326;1254;74502;-84
2023/02/13 00:18:35;;;;;;;4.40;1.90;;;;;;;-1.80;100.00;102155.19;109293;1253;68963;-84
2023/02/13 00:21:25;;;;;;;4.60;1.70;;;;;;;-1.98;100.00;102157.93;109372;1254;72162;-84
2023/02/13 00:24:15;;;;;;;3.10;1.40;;;;;;;-1.96;100.00;102158.76;109323;1253;60682;-84
2023/02/13 00:27:03;;;;;;;5.30;1.90;;;;;;;-2.06;100.00;102151.96;109316;1253;59392;-84
2023/02/13 00:29:52;;;;;;;4.70;2.30;;;;;;;-2.05;100.00;102153.27;109346;1253;74569;-84
2023/02/13 00:32:41;;;;;;;5.60;1.60;;;;;;;-2.09;100.00;102153.17;109402;1252;68604;-82
2023/02/13 00:35:31;;;;;;;6.60;1.80;;;;;;;-2.11;100.00;102156.04;109367;1253;72775;-85
2023/02/13 00:38:20;;;;;;;5.50;1.40;;;;;;;-2.11;100.00;102150.14;109320;1253;59212;-83
2023/02/13 00:41:09;;;;;;;4.90;1.70;;;;;;;-2.13;100.00;102146.45;109168;1253;60377;-84
2023/02/13 00:43:58;;;;;;;3.70;1.70;;;;;;;-2.12;100.00;102144.23;109340;1254;71940;-84
2023/02/13 00:46:47;;;;;;;5.20;1.50;;;;;;;-2.16;100.00;102149.54;109292;1256;68665;-83
2023/02/13 00:49:37;;;;;;;7.10;1.60;;;;;;;-2.22;100.00;102154.44;109309;1254;72089;-83
2023/02/13 00:52:26;;;;;;;4.30;1.60;;;;;;;-2.27;100.00;102148.13;109343;1253;58539;-82
2023/02/13 00:55:19;;;;;;;5.60;1.90;;;;;;;-2.38;100.00;102144.78;109313;1254;60571;-84
2023/02/13 00:58:16;;;;;;;3.10;1.60;;;;;;;-2.42;100.00;102151.21;109398;1253;71760;-84
2023/02/13 01:01:04;;;;;;;7.60;2.10;;;;;;;-2.35;100.00;102150.38;109333;1254;69503;-84
2023/02/13 01:03:53;;;;;;;4.80;1.80;;;;;;;-2.39;100.00;102155.75;109134;1256;73065;-82
2023/02/13 01:06:42;;;;;;;2.90;2.10;;;;;;;-2.41;100.00;102150.23;109332;1253;62020;-84
2023/02/13 01:09:34;;;;;;;3.60;2.20;;;;;;;-2.50;100.00;102156.11;109358;1252;60680;-83
2023/02/13 01:12:23;;;;;;;5.80;2.10;;;;;;;-2.56;100.00;102153.84;109339;1253;75056;-83
2023/02/13 01:15:12;;;;;;;9.00;2.00;;;;;;;-2.64;100.00;102151.95;109333;1254;69605;-82
2023/02/13 01:18:02;;;;;;;4.60;1.90;;;;;;;-2.66;100.00;102145.88;109411;1253;72795;-83
2023/02/13 01:20:59;;;;;;;3.10;1.80;;;;;;;-2.73;100.00;102139.82;109274;1252;62630;-83
2023/02/13 01:23:52;;;;;;;5.40;2.50;;;;;;;-2.83;100.00;102140.50;109394;1254;61785;-84
2023/02/13 01:26:43;;;;;;;6.10;2.10;;;;;;;-2.84;100.00;102144.27;109355;1253;74216;-83
2023/02/13 01:29:33;;;;;;;8.10;2.40;;;;;;;-2.81;100.00;102150.91;109268;1257;67674;-83
2023/02/13 01:32:22;;;;;;;8.80;2.30;;;;;;;-2.88;100.00;102155.70;109329;1253;74323;-84
2023/02/13 01:35:12;;;;;;;8.00;3.90;;;;;;;-2.84;100.00;102152.33;109376;1251;62094;-84
2023/02/13 01:38:00;;;;;;;4.80;2.50;;;;;;;-2.80;100.00;102156.92;109346;1254;61565;-83
2023/02/13 01:40:52;;;;;;;5.50;2.40;;;;;;;-2.81;100.00;102155.60;109249;1254;74322;-82
2023/02/13 01:43:47;;;;;;;7.40;2.40;;;;;;;-2.76;100.00;102151.40;109212;1253;68992;-83
2023/02/13 01:46:41;;;;;;;8.30;3.30;;;;;;;-2.86;100.00;102155.51;109273;1257;70989;-82
2023/02/13 01:49:32;;;;;;;3.70;2.30;;;;;;;-2.72;100.00;102144.40;109245;1257;63213;-83
2023/02/13 01:52:21;;;;;;;6.30;2.30;;;;;;;-2.70;100.00;102148.13;109287;1253;61905;-83
2023/02/13 01:55:10;;;;;;;8.00;2.60;;;;;;;-2.69;100.00;102150.72;109286;1255;74971;-83
2023/02/13 01:58:05;;;;;;;5.20;3.00;;;;;;;-2.83;100.00;102151.00;109277;1251;67082;-83
2023/02/13 02:00:54;;;;;;;4.70;2.70;;;;;;;-2.89;100.00;102153.00;109193;1253;72169;-83
2023/02/13 02:03:48;;;;;;;5.90;3.30;;;;;;;-2.90;100.00;102149.17;109220;1253;59945;-82
2023/02/13 02:06:40;;;;;;;5.50;2.30;;;;;;;-2.83;100.00;102145.45;109238;1256;59158;-83
2023/02/13 02:09:31;;;;;;;5.80;2.20;;;;;;;-2.87;100.00;102150.83;109220;1253;74576;-82
2023/02/13 02:13:04;;;;;;;4.90;2.20;;;;;;;-2.88;100.00;102152.58;109013;1254;70852;-84
2023/02/13 02:15:52;;;;;;;5.90;3.10;;;;;;;-2.84;100.00;102152.66;109287;1253;72956;-83
2023/02/13 02:18:41;;;;;;;5.30;2.50;;;;;;;-2.87;100.00;102151.39;109240;1253;59316;-83
2023/02/13 02:21:58;;;;;;;7.20;2.40;;;;;;;-2.87;100.00;102147.79;109205;1253;61475;-85
2023/02/13 02:25:37;;;;;;;4.60;2.50;;;;;;;-2.86;100.00;102146.46;109238;1254;74150;-84
2023/02/13 02:28:53;;;;;;;4.50;2.00;;;;;;;-2.90;100.00;102148.42;109036;1254;69212;-85
2023/02/13 02:32:09;;;;;;;4.40;2.00;;;;;;;-2.85;100.00;102143.54;109267;1254;71886;-85
2023/02/13 02:35:25;;;;;;;5.90;2.10;;;;;;;-2.82;100.00;102141.47;109192;1254;58966;-82
2023/02/13 02:38:38;;;;;;;8.50;2.40;;;;;;;-2.80;100.00;102140.92;109078;1254;61991;-85
2023/02/13 02:41:56;;;;;;;5.60;2.40;;;;;;;-2.82;100.00;102144.09;109240;1256;74447;-81
2023/02/13 02:45:18;;;;;;;3.40;2.30;;;;;;;-2.82;100.00;102140.36;109201;1255;69725;-84
2023/02/13 02:51:54;;;;;;;3.60;2.00;;;;;;;-2.98;100.00;102136.80;109285;1253;59713;-84
2023/02/13 02:55:07;;;;;;;4.20;1.80;;;;;;;-2.99;100.00;102125.16;109243;1253;59216;-85
2023/02/13 03:07:48;;;;;;;5.40;2.30;;;;;;;-2.99;100.00;102119.34;109264;1252;61042;-85
2023/02/13 03:13:46;;;;;;;6.00;2.20;;;;;;;-3.00;100.00;102122.11;109418;1253;74441;-84
2023/02/13 03:23:13;;;;;;;6.00;1.90;;;;;;;-2.87;100.00;102119.23;109380;1253;61011;-85
2023/02/13 03:26:31;;;;;;;6.80;2.00;;;;;;;-2.88;100.00;102115.66;109271;1254;61380;-83
2023/02/13 03:32:54;;;;;;;2.50;1.50;;;;;;;-2.83;100.00;102102.98;109359;1254;68448;-85
2023/02/13 03:39:45;;;;;;;4.10;1.70;;;;;;;-2.72;100.00;102102.15;109374;1254;58639;-84
2023/02/13 03:42:41;;;;;;;3.70;2.20;;;;;;;-2.66;100.00;102097.17;109331;1253;59829;-85
2023/02/13 03:51:58;;;;;;;5.50;2.00;;;;;;;-2.54;100.00;102089.25;109272;1252;72532;-86
2023/02/13 04:01:21;;;;;;;3.50;1.60;;;;;;;-2.47;100.00;102087.52;109168;1256;74027;-85
2023/02/13 04:04:24;;;;;;;6.70;1.50;;;;;;;-2.47;100.00;102087.84;109343;1254;69895;-86
2023/02/13 04:07:28;;;;;;;3.60;1.40;;;;;;;-2.42;100.00;102085.94;109214;1257;71171;-85
2023/02/13 04:10:17;;;;;;;3.60;1.80;;;;;;;-2.43;100.00;102079.91;109133;1252;59982;-85
2023/02/13 04:13:35;;;;;;;5.40;2.00;;;;;;;-2.42;100.00;102073.96;109353;1254;60491;-79
2023/02/13 04:16:34;;;;;;;12.10;5.20;;;;;;;-2.39;100.00;102076.16;109173;1254;74646;-79
2023/02/13 04:19:24;;;;;;;70.30;24.50;;;;;;;-2.41;100.00;102070.95;109217;1251;69925;-76
2023/02/13 04:22:14;;;;;;;73.10;32.20;;;;;;;-2.42;100.00;102068.22;109208;1254;73772;-77
2023/02/13 04:25:04;;;;;;;60.50;27.10;;;;;;;-2.42;100.00;102068.54;109370;1253;58445;-83
2023/02/13 04:27:52;;;;;;;6.70;3.70;;;;;;;-2.40;100.00;102061.94;109408;1252;61939;-85
2023/02/13 04:30:41;;;;;;;5.30;2.50;;;;;;;-2.35;100.00;102050.25;109360;1251;72034;-84
2023/02/13 04:33:32;;;;;;;3.90;2.10;;;;;;;-2.31;100.00;102050.50;109333;1253;67494;-83
2023/02/13 04:36:21;;;;;;;5.80;1.70;;;;;;;-2.27;100.00;102052.80;109264;1254;70925;-85
2023/02/13 04:39:10;;;;;;;2.60;1.60;;;;;;;-2.31;100.00;102053.22;109356;1251;61233;-85
2023/02/13 04:41:59;;;;;;;4.50;1.60;;;;;;;-2.31;100.00;102056.29;109326;1253;59054;-85
2023/02/13 04:44:47;;;;;;;5.10;2.20;;;;;;;-2.30;100.00;102059.50;109357;1253;72532;-85
2023/02/13 04:47:36;;;;;;;3.00;1.70;;;;;;;-2.27;100.00;102065.85;109363;1251;69930;-84
2023/02/13 04:50:25;;;;;;;10.40;4.50;;;;;;;-2.27;100.00;102070.77;109369;1254;73075;-85
2023/02/13 04:53:14;;;;;;;10.20;4.50;;;;;;;-2.22;100.00;102073.13;109390;1253;59751;-84
2023/02/13 04:56:03;;;;;;;35.70;16.50;;;;;;;-2.20;100.00;102068.29;109326;1254;61606;-82
2023/02/13 04:58:53;;;;;;;19.30;6.90;;;;;;;-2.20;100.00;102071.02;109346;1252;73813;-85
2023/02/13 05:01:42;;;;;;;10.10;3.40;;;;;;;-2.23;100.00;102067.55;109388;1253;68545;-85
2023/02/13 05:04:32;;;;;;;8.10;3.30;;;;;;;-2.25;100.00;102075.05;109418;1254;73881;-85
2023/02/13 05:07:21;;;;;;;12.90;3.70;;;;;;;-2.23;100.00;102072.78;109388;1252;60367;-85
2023/02/13 05:10:11;;;;;;;10.30;3.60;;;;;;;-2.23;100.00;102069.56;109393;1253;60230;-86
2023/02/13 05:13:01;;;;;;;11.20;3.80;;;;;;;-2.24;100.00;102064.80;109358;1254;74099;-84
2023/02/13 05:15:53;;;;;;;6.50;2.60;;;;;;;-2.29;100.00;102068.35;109296;1253;69513;-84
2023/02/13 05:18:42;;;;;;;4.70;2.30;;;;;;;-2.31;100.00;102077.84;109285;1253;71797;-84
2023/02/13 05:24:38;;;;;;;7.30;1.80;;;;;;;-2.14;100.00;102078.67;109346;1252;58293;-84
2023/02/13 05:27:28;;;;;;;4.20;2.30;;;;;;;-2.11;100.00;102086.44;109364;1252;72830;-85
2023/02/13 05:30:16;;;;;;;5.80;1.80;;;;;;;-2.05;100.00;102090.52;109333;1253;69466;-84
2023/02/13 05:33:05;;;;;;;5.80;2.10;;;;;;;-1.93;100.00;102086.63;109310;1254;72103;-85
2023/02/13 05:35:54;;;;;;;6.60;2.20;;;;;;;-1.83;100.00;102087.93;109363;1253;58567;-84
2023/02/13 05:38:43;;;;;;;3.40;2.20;;;;;;;-1.79;100.00;102091.44;109362;1253;60191;-84
2023/02/13 05:41:34;;;;;;;5.60;2.20;;;;;;;-1.71;100.00;102087.81;109325;1253;74091;-85
2023/02/13 05:44:23;;;;;;;4.90;2.10;;;;;;;-1.65;100.00;102086.50;109342;1253;66740;-85
2023/02/13 05:47:11;;;;;;;3.40;2.10;;;;;;;-1.62;100.00;102081.86;109331;1254;72511;-84
2023/02/13 05:50:00;;;;;;;3.80;1.80;;;;;;;-1.55;100.00;102078.61;109241;1254;59782;-85
2023/02/13 05:52:49;;;;;;;89.40;38.00;;;;;;;-1.48;100.00;102079.90;109306;1252;59813;-85
2023/02/13 05:55:38;;;;;;;13.80;7.60;;;;;;;-1.39;100.00;102067.66;109316;1252;71787;-85
2023/02/13 05:58:28;;;;;;;11.20;4.90;;;;;;;-1.28;100.00;102065.94;109267;1254;70069;-85
2023/02/13 06:01:17;;;;;;;6.80;3.20;;;;;;;-1.15;100.00;102055.31;109309;1252;72172;-85
2023/02/13 06:04:05;;;;;;;8.60;3.50;;;;;;;-1.04;100.00;102048.17;109388;1251;60807;-85
2023/02/13 06:06:54;;;;;;;14.70;6.10;;;;;;;-0.95;100.00;102045.27;109312;1253;60469;-84
2023/02/13 06:09:43;;;;;;;22.10;8.70;;;;;;;-0.90;100.00;102047.30;109323;1252;74884;-85
2023/02/13 06:12:32;;;;;;;146.90;40.00;;;;;;;-0.83;100.00;102046.18;109370;1252;67501;-85
2023/02/13 06:15:21;;;;;;;19.80;10.80;;;;;;;-0.82;100.00;102037.71;109273;1252;73937;-86
2023/02/13 06:18:10;;;;;;;3.80;2.00;;;;;;;-0.71;100.00;102030.95;109357;1253;60587;-85
2023/02/13 06:20:59;;;;;;;5.20;2.10;;;;;;;-0.60;100.00;102035.06;109325;1253;59092;-84
2023/02/13 06:23:47;;;;;;;5.00;2.80;;;;;;;-0.50;100.00;102035.23;109310;1253;72799;-83
2023/02/13 06:26:36;;;;;;;5.70;2.30;;;;;;;-0.37;100.00;102036.39;109310;1252;69936;-83
2023/02/13 06:29:25;;;;;;;9.10;3.10;;;;;;;-0.14;100.00;102025.88;109314;1251;73173;-84
2023/02/13 06:32:14;;;;;;;5.60;2.50;;;;;;;0.06;100.00;102023.89;109285;1253;60059;-84
2023/02/13 06:35:03;;;;;;;7.00;2.50;;;;;;;0.29;100.00;102022.05;109289;1253;59612;-84
2023/02/13 06:37:53;;;;;;;3.90;2.20;;;;;;;0.49;100.00;102014.77;109328;1252;72931;-86
2023/02/13 06:40:42;;;;;;;5.70;2.00;;;;;;;0.59;100.00;102015.79;109359;1253;66687;-83
2023/02/13 06:43:31;;;;;;;5.60;2.70;;;;;;;0.67;100.00;102019.14;109313;1253;71035;-85
2023/02/13 06:46:20;;;;;;;11.20;5.10;;;;;;;0.79;100.00;102017.56;109329;1252;61147;-84
2023/02/13 06:49:09;;;;;;;9.30;4.00;;;;;;;0.92;100.00;102014.64;109337;1252;60276;-85
2023/02/13 06:51:58;;;;;;;4.40;2.10;;;;;;;1.02;100.00;102004.55;109256;1254;73385;-86
2023/02/13 06:54:49;;;;;;;5.50;3.00;;;;;;;1.07;100.00;101994.21;109183;1256;69595;-85
2023/02/13 06:57:38;;;;;;;5.50;2.50;;;;;;;1.00;100.00;101988.85;109210;1254;71675;-86
2023/02/13 07:00:28;;;;;;;5.10;2.50;;;;;;;0.99;100.00;101978.11;109229;1253;58747;-87
2023/02/13 07:03:17;;;;;;;9.10;3.70;;;;;;;1.06;100.00;101974.78;109352;1252;59116;-84
2023/02/13 07:06:05;;;;;;;4.60;2.30;;;;;;;1.11;100.00;101970.63;109274;1253;74759;-84
2023/02/13 07:08:54;;;;;;;5.00;2.20;;;;;;;1.20;100.00;101964.95;109209;1253;68627;-84
2023/02/13 07:11:43;;;;;;;4.60;2.10;;;;;;;1.27;100.00;101957.04;109252;1254;71881;-86
2023/02/13 07:14:32;;;;;;;3.20;2.30;;;;;;;1.36;100.00;101953.34;109293;1253;60393;-83
2023/02/13 07:17:21;;;;;;;8.40;3.60;;;;;;;1.48;100.00;101957.64;109299;1253;59812;-84
2023/02/13 07:20:10;;;;;;;6.70;2.30;;;;;;;1.62;100.00;101960.63;109328;1253;75050;-84
2023/02/13 07:23:00;;;;;;;7.20;2.50;;;;;;;1.79;100.00;101967.64;109369;1253;69010;-85
2023/02/13 07:25:49;;;;;;;5.90;2.60;;;;;;;1.96;100.00;101969.02;109315;1253;72576;-84
2023/02/13 07:28:38;;;;;;;5.70;2.40;;;;;;;2.13;100.00;101973.70;109351;1253;58270;-83
2023/02/13 07:31:27;;;;;;;4.20;2.50;;;;;;;2.28;100.00;101969.13;109307;1253;60578;-85
2023/02/13 07:34:16;;;;;;;7.30;3.30;;;;;;;2.41;100.00;101956.52;109353;1252;73706;-85
2023/02/13 07:37:04;;;;;;;4.60;2.40;;;;;;;2.55;100.00;101957.98;109321;1253;68798;-84
2023/02/13 07:39:53;;;;;;;6.70;2.60;;;;;;;2.52;100.00;101962.30;109290;1253;72924;-84
2023/02/13 07:42:42;;;;;;;6.60;2.30;;;;;;;2.54;100.00;101961.02;109338;1253;62467;-84
2023/02/13 07:45:33;;;;;;;5.80;2.70;;;;;;;2.63;100.00;101947.57;109333;1253;59716;-85
2023/02/13 07:48:22;;;;;;;5.40;2.30;;;;;;;2.74;100.00;101940.75;109300;1253;72753;-84
2023/02/13 07:51:11;;;;;;;5.70;2.50;;;;;;;2.83;100.00;101941.46;109347;1253;68679;-85
2023/02/13 07:54:00;;;;;;;10.80;3.20;;;;;;;2.90;100.00;101931.55;109227;1253;74003;-84
2023/02/13 07:56:49;;;;;;;5.60;3.00;;;;;;;3.01;100.00;101930.52;109277;1253;61738;-87
2023/02/13 07:59:39;;;;;;;9.20;2.70;;;;;;;3.26;100.00;101924.64;109303;1253;60311;-86
2023/02/13 08:02:28;;;;;;;4.30;2.80;;;;;;;3.50;100.00;101921.92;109279;1252;74432;-88
2023/02/13 08:05:17;;;;;;;7.80;3.60;;;;;;;3.72;100.00;101922.40;109359;1253;69423;-87
2023/02/13 08:08:05;;;;;;;7.70;3.20;;;;;;;3.73;100.00;101929.85;109385;1254;72566;-87
2023/02/13 08:14:02;;;;;;;5.80;3.10;;;;;;;3.65;100.00;101939.46;109320;1251;61464;-88
2023/02/13 08:16:52;;;;;;;5.50;3.10;;;;;;;3.65;100.00;101933.71;109262;1252;72302;-88
2023/02/13 08:19:40;;;;;;;7.60;2.90;;;;;;;3.54;100.00;101931.64;109216;1254;69414;-87
2023/02/13 08:22:30;;;;;;;7.20;3.00;;;;;;;3.47;100.00;101919.52;109053;1253;246436;-88
2023/02/13 08:25:23;;;;;;;7.50;3.20;;;;;;;3.34;100.00;101925.92;109335;1252;59144;-88
2023/02/13 08:28:12;;;;;;;6.30;3.40;;;;;;;3.25;100.00;101919.43;109352;1252;60401;-87
2023/02/13 08:31:01;;;;;;;9.90;4.60;;;;;;;3.09;100.00;101918.41;109290;1253;74015;-90
2023/02/13 08:33:50;;;;;;;7.20;3.40;;;;;;;3.05;100.00;101909.70;109306;1253;70922;-90
2023/02/13 08:36:39;;;;;;;7.40;3.40;;;;;;;3.01;100.00;101914.48;109307;1252;70982;-87
2023/02/13 08:39:28;;;;;;;6.80;3.40;;;;;;;3.01;100.00;101913.65;109226;1253;59107;-89
2023/02/13 08:42:16;;;;;;;7.80;3.80;;;;;;;3.04;100.00;101910.52;109341;1252;59818;-87
2023/02/13 08:45:06;;;;;;;10.40;4.80;;;;;;;3.12;100.00;101908.42;109289;1253;74099;-86
2023/02/13 08:47:58;;;;;;;9.90;5.20;;;;;;;3.14;100.00;101905.95;109303;1252;69007;-85
2023/02/13 08:50:46;;;;;;;160.30;64.10;;;;;;;3.03;100.00;101905.97;109117;1253;70772;-86
2023/02/13 08:53:35;;;;;;;152.60;66.30;;;;;;;3.02;100.00;101901.27;109247;1253;60510;-88
2023/02/13 08:56:24;;;;;;;29.70;17.20;;;;;;;2.98;100.00;101896.13;109352;1251;59475;-87
2023/02/13 08:59:13;;;;;;;8.80;5.80;;;;;;;2.97;100.00;101895.34;109346;1252;74654;-86
2023/02/13 09:02:02;;;;;;;86.80;42.00;;;;;;;2.99;100.00;101890.71;109309;1252;69359;-89
2023/02/13 09:04:50;;;;;;;271.90;112.20;;;;;;;2.97;100.00;101889.56;109148;1253;72334;-86
2023/02/13 09:07:40;;;;;;;239.00;99.20;;;;;;;3.05;100.00;101883.80;109295;1253;60274;-87
2023/02/13 09:10:30;;;;;;;150.80;56.10;;;;;;;3.12;100.00;101884.30;109351;1253;60389;-88
2023/02/13 09:13:22;;;;;;;92.00;38.00;;;;;;;3.10;100.00;101874.51;109306;1253;73629;-87
2023/02/13 09:16:12;;;;;;;140.50;56.60;;;;;;;3.07;100.00;101872.13;109260;1253;70306;-88
2023/02/13 09:19:01;;;;;;;23.40;11.30;;;;;;;3.09;100.00;101869.52;109111;1252;71671;-85
2023/02/13 09:21:50;;;;;;;79.10;32.00;;;;;;;3.15;100.00;101863.74;109243;1254;60407;-87
2023/02/13 09:24:38;;;;;;;43.80;20.70;;;;;;;3.17;100.00;101859.93;109235;1253;62311;-87
2023/02/13 09:27:28;;;;;;;40.60;21.30;;;;;;;3.16;100.00;101852.86;109250;1253;74739;-88
2023/02/13 09:30:22;;;;;;;15.50;8.70;;;;;;;3.19;100.00;101846.15;109028;1253;69954;-87
2023/02/13 09:33:11;;;;;;;11.20;7.20;;;;;;;3.27;100.00;101839.94;109188;1252;72897;-87
2023/02/13 09:36:07;;;;;;;9.80;5.50;;;;;;;3.26;100.00;101836.57;109175;1253;60552;-87
2023/02/13 09:38:57;;;;;;;13.00;5.70;;;;;;;3.24;100.00;101828.36;109123;1253;61020;-87
2023/02/13 09:41:47;;;;;;;11.30;5.20;;;;;;;3.25;100.00;101820.90;109274;1253;72814;-89
2023/02/13 09:44:41;;;;;;;12.50;5.20;;;;;;;3.32;100.00;101821.69;109201;1254;68188;-87
2023/02/13 09:47:41;;;;;;;9.20;4.10;;;;;;;3.36;100.00;101814.72;109254;1253;72727;-89
2023/02/13 09:50:32;;;;;;;9.50;5.20;;;;;;;3.39;100.00;101814.38;108981;1253;61868;-88
2023/02/13 09:53:22;;;;;;;12.30;4.50;;;;;;;3.46;100.00;101810.63;109199;1253;60753;-88
2023/02/13 09:56:14;;;;;;;8.70;4.60;;;;;;;3.59;100.00;101817.39;109167;1252;75041;-87
2023/02/13 09:59:33;;;;;;;25.90;13.30;;;;;;;3.68;100.00;101807.05;109172;1254;66811;-87
2023/02/13 10:02:46;;;;;;;32.70;14.60;;;;;;;3.83;100.00;101799.79;109299;1253;71533;-88
2023/02/13 10:06:05;;;;;;;23.20;11.90;;;;;;;3.88;100.00;101793.00;109150;1253;58605;-88
2023/02/13 10:09:01;;;;;;;159.30;61.10;;;;;;;3.91;100.00;101785.76;109107;1254;60411;-87
2023/02/13 10:12:12;;;;;;;21.10;11.30;;;;;;;3.89;100.00;101779.31;109036;1254;74821;-89
2023/02/13 10:15:21;;;;;;;13.20;7.80;;;;;;;3.96;100.00;101774.50;109054;1254;68296;-88
2023/02/13 10:18:15;;;;;;;12.60;7.40;;;;;;;4.00;100.00;101771.73;109191;1252;73716;-88
2023/02/13 10:21:04;;;;;;;8.70;5.00;;;;;;;4.08;100.00;101769.10;109030;1254;59452;-87
2023/02/13 10:24:28;;;;;;;14.60;6.10;;;;;;;4.10;100.00;101767.96;109193;1252;61483;-87
2023/02/13 10:27:21;;;;;;;10.60;5.20;;;;;;;4.14;100.00;101767.73;109198;1252;74434;-87
2023/02/13 10:30:13;;;;;;;8.40;4.90;;;;;;;4.15;100.00;101763.45;109276;1252;69678;-88
2023/02/13 10:33:24;;;;;;;12.70;4.80;;;;;;;4.15;100.00;101761.65;109332;1252;73137;-88
2023/02/13 10:36:18;;;;;;;11.40;4.80;;;;;;;4.21;100.00;101757.21;109285;1254;58742;-88
2023/02/13 10:39:16;;;;;;;9.50;4.60;;;;;;;4.25;100.00;101755.69;109232;1252;59004;-86
2023/02/13 10:42:40;;;;;;;10.10;5.20;;;;;;;4.27;100.00;101751.52;109280;1253;74506;-87
2023/02/13 10:45:40;;;;;;;;;;;;;;;4.37;100.00;101743.50;109145;1254;67664;-89
2023/02/13 10:48:40;;;;;;;12.00;5.00;;;;;;;4.35;100.00;101736.48;109186;1254;71873;-89
2023/02/13 10:51:34;;;;;;;8.30;4.20;;;;;;;4.37;100.00;101741.84;109064;1254;58807;-88
2023/02/13 10:54:54;;;;;;;10.30;5.00;;;;;;;4.41;100.00;101737.88;109137;1252;59705;-86
2023/02/13 10:58:00;;;;;;;9.20;4.50;;;;;;;4.38;100.00;101743.16;109155;1254;71784;-89
2023/02/13 11:00:54;;;;;;;9.10;4.60;;;;;;;4.47;100.00;101741.45;109122;1253;69679;-89
2023/02/13 11:03:46;;;;;;;10.60;4.90;;;;;;;4.60;100.00;101740.80;109309;1252;71996;-86
2023/02/13 11:06:36;;;;;;;11.30;5.30;;;;;;;4.68;100.00;101742.48;109229;1254;59807;-88
2023/02/13 11:09:25;;;;;;;9.20;5.30;;;;;;;4.79;100.00;101744.55;109107;1253;60241;-87
2023/02/13 11:12:31;;;;;;;9.60;5.40;;;;;;;4.91;100.00;101740.71;109315;1252;72549;-87
2023/02/13 11:15:26;;;;;;;10.00;6.20;;;;;;;5.05;100.00;101736.72;109045;1253;67943;-88
2023/02/13 11:18:18;;;;;;;11.90;6.40;;;;;;;5.08;100.00;101729.59;109201;1253;70793;-87
2023/02/13 11:21:19;;;;;;;12.50;6.10;;;;;;;5.11;100.00;101730.45;109095;1253;58592;-87
2023/02/13 11:24:16;;;;;;;11.20;6.00;;;;;;;5.14;100.00;101724.95;109094;1253;60793;-87
2023/02/13 11:27:12;;;;;;;12.40;5.30;;;;;;;5.10;100.00;101721.33;109120;1253;75225;-87
2023/02/13 11:30:06;;;;;;;8.60;5.00;;;;;;;5.11;100.00;101712.75;109116;1253;69915;-87
2023/02/13 11:33:17;;;;;;;8.60;5.30;;;;;;;5.21;100.00;101709.02;109042;1253;73007;-87
2023/02/13 11:36:14;;;;;;;34.40;19.30;;;;;;;5.31;100.00;101699.94;109099;1253;59759;-86
2023/02/13 11:39:16;;;;;;;23.80;13.30;;;;;;;5.45;100.00;101700.14;109005;1257;58570;-87
2023/02/13 11:42:12;;;;;;;76.20;34.70;;;;;;;5.52;100.00;101695.42;109124;1253;73637;-86
2023/02/13 11:45:04;;;;;;;49.00;21.40;;;;;;;5.49;100.00;101697.10;109260;1255;68748;-86
2023/02/13 11:47:55;;;;;;;13.20;6.10;;;;;;;5.54;100.00;101695.87;109257;1253;73827;-86
2023/02/13 11:50:49;;;;;;;;;;;;;;;5.53;100.00;101691.88;109199;1253;60711;-86
2023/02/13 11:53:38;;;;;;;16.40;6.90;;;;;;;5.55;100.00;101686.11;109211;1255;58881;-86
2023/02/13 11:56:27;;;;;;;15.30;9.20;;;;;;;5.56;100.00;101686.40;109309;1253;71952;-87
2023/02/13 11:59:16;;;;;;;24.30;13.10;;;;;;;5.40;100.00;101680.17;109026;1253;68710;-83
2023/02/13 12:02:14;;;;;;;14.20;8.00;;;;;;;5.38;100.00;101676.84;109059;1253;73143;-83
2023/02/13 12:05:17;;;;;;;27.00;12.70;;;;;;;5.33;100.00;101678.77;109133;1253;59823;-83
2023/02/13 12:08:07;;;;;;;40.90;19.60;;;;;;;5.26;100.00;101682.36;109296;1253;59164;-82
2023/02/13 12:11:01;;;;;;;14.50;7.60;;;;;;;5.19;100.00;101678.74;109136;1253;73830;-83
2023/02/13 12:13:50;;;;;;;14.30;6.90;;;;;;;5.20;100.00;101676.11;109114;1253;69913;-83
2023/02/13 12:16:49;;;;;;;13.90;7.70;;;;;;;5.14;100.00;101675.06;109248;1253;71721;-83
2023/02/13 12:19:44;;;;;;;13.40;6.50;;;;;;;5.10;100.00;101676.77;109094;1253;59990;-83
2023/02/13 12:22:45;;;;;;;15.80;7.40;;;;;;;4.98;100.00;101674.10;109226;1253;59482;-83
2023/02/13 12:25:46;;;;;;;12.90;6.00;;;;;;;4.87;100.00;101675.53;109113;1253;74363;-84
2023/02/13 12:29:00;;;;;;;13.00;7.20;;;;;;;4.71;100.00;101675.11;109292;1253;68984;-83
2023/02/13 12:32:18;;;;;;;15.50;6.80;;;;;;;4.63;100.00;101678.95;109231;1253;72721;-83
2023/02/13 12:35:26;;;;;;;15.00;7.90;;;;;;;4.59;100.00;101675.58;108750;1253;58636;-83
2023/02/13 12:38:30;;;;;;;15.80;7.50;;;;;;;4.57;100.00;101673.70;109277;1253;58236;-84
2023/02/13 12:41:57;;;;;;;15.90;8.00;;;;;;;4.48;100.00;101672.59;109080;1253;73787;-83
2023/02/13 12:44:52;;;;;;;16.00;8.30;;;;;;;4.41;100.00;101674.30;108744;1259;69979;-83
2023/02/13 12:47:45;;;;;;;24.20;11.90;;;;;;;4.36;100.00;101663.52;109214;1253;72613;-83
2023/02/13 12:51:02;;;;;;;15.20;8.90;;;;;;;4.27;100.00;101656.31;109080;1253;60985;-84
2023/02/13 12:54:16;;;;;;;18.20;8.90;;;;;;;4.24;100.00;101649.52;108988;1253;59648;-83
2023/02/13 12:57:17;;;;;;;16.10;7.90;;;;;;;4.24;100.00;101646.95;109190;1253;74827;-83
2023/02/13 13:00:15;;;;;;;14.60;7.40;;;;;;;4.28;100.00;101647.27;109291;1253;69212;-83
2023/02/13 13:03:24;;;;;;;17.10;7.20;;;;;;;4.31;100.00;101645.83;109092;1253;73687;-83
2023/02/13 13:06:37;;;;;;;17.90;7.80;;;;;;;4.29;100.00;101647.37;109084;1253;59033;-84
2023/02/13 13:09:45;;;;;;;17.10;8.00;;;;;;;4.27;100.00;101645.08;109274;1253;61185;-84
2023/02/13 13:12:43;;;;;;;16.00;8.40;;;;;;;4.27;100.00;101641.20;109070;1253;73714;-83
2023/02/13 13:16:02;;;;;;;14.50;7.70;;;;;;;4.29;100.00;101635.22;109247;1253;67409;-83
2023/02/13 13:19:17;;;;;;;16.60;7.60;;;;;;;4.34;100.00;101636.45;109215;1253;73719;-83
2023/02/13 13:22:14;;;;;;;18.30;8.60;;;;;;;4.29;100.00;101633.63;109266;1253;59175;-83
2023/02/13 13:25:13;;;;;;;21.30;9.30;;;;;;;4.27;100.00;101625.89;109152;1252;60908;-84
2023/02/13 13:28:22;;;;;;;16.70;7.60;;;;;;;4.31;100.00;101620.05;109239;1254;74026;-83
2023/02/13 13:31:13;;;;;;;13.00;7.00;;;;;;;4.25;100.00;101616.27;109069;1253;68928;-83
2023/02/13 13:34:05;;;;;;;12.60;6.90;;;;;;;4.28;100.00;101609.44;109243;1253;72061;-84
2023/02/13 13:37:00;;;;;;;17.00;8.50;;;;;;;4.28;100.00;101608.39;109264;1253;58857;-83
2023/02/13 13:39:57;;;;;;;13.40;6.80;;;;;;;4.32;100.00;101602.70;109287;1253;58524;-84
2023/02/13 13:43:07;;;;;;;15.20;6.80;;;;;;;4.21;100.00;101598.33;109178;1253;74252;-84
2023/02/13 13:46:18;;;;;;;13.00;6.60;;;;;;;4.14;100.00;101602.50;109096;1253;69747;-84
2023/02/13 13:49:13;;;;;;;12.70;6.20;;;;;;;4.14;100.00;101605.98;109120;1253;73692;-84
2023/02/13 13:52:32;;;;;;;14.80;7.20;;;;;;;4.20;100.00;101606.58;109233;1253;61535;-83
2023/02/13 13:55:58;;;;;;;15.90;7.10;;;;;;;4.23;100.00;101599.87;109307;1253;60337;-83
2023/02/13 13:58:49;;;;;;;19.10;8.20;;;;;;;4.25;100.00;101602.95;108759;1259;74406;-83
2023/02/13 14:01:39;;;;;;;14.50;7.70;;;;;;;4.24;100.00;101600.16;109243;1253;69051;-83
2023/02/13 14:04:31;;;;;;;14.10;6.50;;;;;;;4.20;100.00;101595.66;109028;1253;73725;-84